sensor_id;sensor_type;location;lat;lon;timestamp;P1;durP1;ratioP1;P2;durP2;ratioP2
25023;SDS011;13033;50.936;5.334;2022-12-08T00:00:52;22.65;;;14.25;;
25023;SDS011;13033;50.936;5.334;2022-12-08T00:03:18;26.17;;;15.35;;
25023;SDS011;13033;50.936;5.334;2022-12-08T00:05:47;23.77;;;14.95;;
25023;SDS011;13033;50.936;5.334;2022-12-08T00:08:32;21.17;;;13.90;;
25023;SDS011;13033;50.936;5.334;2022-12-08T00:11:17;24.88;;;14.98;;
25023;SDS011;13033;50.936;5.334;2022-12-08T00:13:43;26.77;;;14.70;;
25023;SDS011;13033;50.936;5.334;2022-12-08T00:16:09;22.02;;;14.02;;
25023;SDS011;13033;50.936;5.334;2022-12-08T00:18:35;24.85;;;13.55;;
25023;SDS011;13033;50.936;5.334;2022-12-08T00:21:01;26.75;;;14.35;;
25023;SDS011;13033;50.936;5.334;2022-12-08T00:23:27;20.15;;;12.27;;
25023;SDS011;13033;50.936;5.334;2022-12-08T00:25:53;17.17;;;11.88;;
25023;SDS011;13033;50.936;5.334;2022-12-08T00:28:19;18.60;;;12.48;;
25023;SDS011;13033;50.936;5.334;2022-12-08T00:30:45;18.45;;;12.60;;
25023;SDS011;13033;50.936;5.334;2022-12-08T00:33:11;21.30;;;12.05;;
25023;SDS011;13033;50.936;5.334;2022-12-08T00:35:36;18.63;;;10.80;;
25023;SDS011;13033;50.936;5.334;2022-12-08T00:38:03;17.55;;;11.32;;
25023;SDS011;13033;50.936;5.334;2022-12-08T00:40:28;19.35;;;11.70;;
25023;SDS011;13033;50.936;5.334;2022-12-08T00:42:54;20.40;;;11.15;;
25023;SDS011;13033;50.936;5.334;2022-12-08T00:45:20;18.77;;;10.93;;
25023;SDS011;13033;50.936;5.334;2022-12-08T00:47:46;17.35;;;11.02;;
25023;SDS011;13033;50.936;5.334;2022-12-08T00:50:12;16.35;;;10.38;;
25023;SDS011;13033;50.936;5.334;2022-12-08T00:52:38;18.30;;;10.70;;
25023;SDS011;13033;50.936;5.334;2022-12-08T00:55:03;17.58;;;9.90;;
25023;SDS011;13033;50.936;5.334;2022-12-08T00:57:30;17.95;;;9.93;;
25023;SDS011;13033;50.936;5.334;2022-12-08T00:59:56;13.38;;;8.55;;
25023;SDS011;13033;50.936;5.334;2022-12-08T01:02:22;12.85;;;8.63;;
25023;SDS011;13033;50.936;5.334;2022-12-08T01:04:48;12.77;;;8.52;;
25023;SDS011;13033;50.936;5.334;2022-12-08T01:07:14;13.48;;;8.55;;
25023;SDS011;13033;50.936;5.334;2022-12-08T01:09:40;17.08;;;9.23;;
25023;SDS011;13033;50.936;5.334;2022-12-08T01:12:05;15.20;;;9.85;;
25023;SDS011;13033;50.936;5.334;2022-12-08T01:14:31;15.85;;;10.05;;
25023;SDS011;13033;50.936;5.334;2022-12-08T01:16:57;16.88;;;10.15;;
25023;SDS011;13033;50.936;5.334;2022-12-08T01:19:23;19.50;;;11.00;;
25023;SDS011;13033;50.936;5.334;2022-12-08T01:21:48;18.42;;;11.90;;
25023;SDS011;13033;50.936;5.334;2022-12-08T01:24:18;24.70;;;13.70;;
25023;SDS011;13033;50.936;5.334;2022-12-08T01:26:45;23.35;;;13.50;;
25023;SDS011;13033;50.936;5.334;2022-12-08T01:29:11;24.05;;;14.45;;
25023;SDS011;13033;50.936;5.334;2022-12-08T01:31:37;23.15;;;14.55;;
25023;SDS011;13033;50.936;5.334;2022-12-08T01:34:03;26.58;;;16.00;;
25023;SDS011;13033;50.936;5.334;2022-12-08T01:36:30;30.30;;;16.17;;
25023;SDS011;13033;50.936;5.334;2022-12-08T01:38:59;31.88;;;17.88;;
25023;SDS011;13033;50.936;5.334;2022-12-08T01:41:26;32.58;;;18.67;;
25023;SDS011;13033;50.936;5.334;2022-12-08T01:44:01;33.08;;;19.15;;
25023;SDS011;13033;50.936;5.334;2022-12-08T01:46:47;35.20;;;19.40;;
25023;SDS011;13033;50.936;5.334;2022-12-08T01:51:59;39.08;;;20.08;;
25023;SDS011;13033;50.936;5.334;2022-12-08T01:54:47;39.38;;;21.92;;
25023;SDS011;13033;50.936;5.334;2022-12-08T01:57:19;44.72;;;21.95;;
25023;SDS011;13033;50.936;5.334;2022-12-08T02:00:11;41.88;;;22.98;;
25023;SDS011;13033;50.936;5.334;2022-12-08T02:02:52;42.30;;;22.23;;
25023;SDS011;13033;50.936;5.334;2022-12-08T02:05:28;43.95;;;24.00;;
25023;SDS011;13033;50.936;5.334;2022-12-08T02:07:59;44.70;;;23.83;;
25023;SDS011;13033;50.936;5.334;2022-12-08T02:10:28;45.15;;;25.02;;
25023;SDS011;13033;50.936;5.334;2022-12-08T02:12:56;43.28;;;24.08;;
25023;SDS011;13033;50.936;5.334;2022-12-08T02:15:28;49.13;;;26.63;;
25023;SDS011;13033;50.936;5.334;2022-12-08T02:18:09;47.38;;;26.40;;
25023;SDS011;13033;50.936;5.334;2022-12-08T02:20:37;45.88;;;26.17;;
25023;SDS011;13033;50.936;5.334;2022-12-08T02:29:49;46.28;;;25.88;;
25023;SDS011;13033;50.936;5.334;2022-12-08T02:40:08;49.70;;;27.13;;
25023;SDS011;13033;50.936;5.334;2022-12-08T02:43:06;48.85;;;26.65;;
25023;SDS011;13033;50.936;5.334;2022-12-08T02:45:46;48.28;;;26.13;;
25023;SDS011;13033;50.936;5.334;2022-12-08T02:48:17;49.67;;;26.17;;
25023;SDS011;13033;50.936;5.334;2022-12-08T02:50:42;48.63;;;25.63;;
25023;SDS011;13033;50.936;5.334;2022-12-08T02:53:08;49.88;;;26.20;;
25023;SDS011;13033;50.936;5.334;2022-12-08T02:58:22;45.95;;;25.75;;
25023;SDS011;13033;50.936;5.334;2022-12-08T03:04:02;53.15;;;26.33;;
25023;SDS011;13033;50.936;5.334;2022-12-08T03:09:23;53.25;;;27.80;;
25023;SDS011;13033;50.936;5.334;2022-12-08T03:12:30;48.13;;;26.55;;
25023;SDS011;13033;50.936;5.334;2022-12-08T03:15:02;47.38;;;24.08;;
25023;SDS011;13033;50.936;5.334;2022-12-08T03:17:32;47.00;;;25.38;;
25023;SDS011;13033;50.936;5.334;2022-12-08T03:20:03;53.30;;;25.77;;
25023;SDS011;13033;50.936;5.334;2022-12-08T03:24:58;50.78;;;25.40;;
25023;SDS011;13033;50.936;5.334;2022-12-08T03:27:27;47.95;;;26.02;;
25023;SDS011;13033;50.936;5.334;2022-12-08T03:29:57;46.95;;;26.40;;
25023;SDS011;13033;50.936;5.334;2022-12-08T03:35:03;50.78;;;24.95;;
25023;SDS011;13033;50.936;5.334;2022-12-08T03:37:35;49.53;;;25.23;;
25023;SDS011;13033;50.936;5.334;2022-12-08T03:40:04;50.00;;;26.13;;
25023;SDS011;13033;50.936;5.334;2022-12-08T03:42:31;49.40;;;26.48;;
25023;SDS011;13033;50.936;5.334;2022-12-08T03:44:57;46.45;;;23.55;;
25023;SDS011;13033;50.936;5.334;2022-12-08T03:47:23;53.50;;;24.83;;
25023;SDS011;13033;50.936;5.334;2022-12-08T03:49:56;50.03;;;25.00;;
25023;SDS011;13033;50.936;5.334;2022-12-08T03:52:22;50.30;;;26.27;;
25023;SDS011;13033;50.936;5.334;2022-12-08T03:54:48;54.40;;;25.95;;
25023;SDS011;13033;50.936;5.334;2022-12-08T03:57:13;51.95;;;25.75;;
25023;SDS011;13033;50.936;5.334;2022-12-08T03:59:39;51.83;;;28.10;;
25023;SDS011;13033;50.936;5.334;2022-12-08T04:02:05;58.17;;;26.95;;
25023;SDS011;13033;50.936;5.334;2022-12-08T04:04:30;51.03;;;26.42;;
25023;SDS011;13033;50.936;5.334;2022-12-08T04:06:56;59.17;;;25.88;;
25023;SDS011;13033;50.936;5.334;2022-12-08T04:09:21;54.45;;;27.25;;
25023;SDS011;13033;50.936;5.334;2022-12-08T04:11:47;49.75;;;26.50;;
25023;SDS011;13033;50.936;5.334;2022-12-08T04:14:13;56.03;;;28.35;;
25023;SDS011;13033;50.936;5.334;2022-12-08T04:16:39;50.58;;;25.38;;
25023;SDS011;13033;50.936;5.334;2022-12-08T04:19:04;52.65;;;26.42;;
25023;SDS011;13033;50.936;5.334;2022-12-08T04:21:30;52.83;;;26.38;;
25023;SDS011;13033;50.936;5.334;2022-12-08T04:23:56;53.08;;;26.83;;
25023;SDS011;13033;50.936;5.334;2022-12-08T04:26:22;52.55;;;27.02;;
25023;SDS011;13033;50.936;5.334;2022-12-08T04:28:47;60.83;;;29.55;;
25023;SDS011;13033;50.936;5.334;2022-12-08T04:31:13;58.58;;;25.58;;
25023;SDS011;13033;50.936;5.334;2022-12-08T04:33:39;57.35;;;28.10;;
25023;SDS011;13033;50.936;5.334;2022-12-08T04:36:05;60.53;;;27.55;;
25023;SDS011;13033;50.936;5.334;2022-12-08T04:38:31;61.08;;;28.83;;
25023;SDS011;13033;50.936;5.334;2022-12-08T04:40:57;47.13;;;26.17;;
25023;SDS011;13033;50.936;5.334;2022-12-08T04:43:23;56.13;;;26.80;;
25023;SDS011;13033;50.936;5.334;2022-12-08T04:45:49;56.10;;;26.52;;
25023;SDS011;13033;50.936;5.334;2022-12-08T04:48:14;51.88;;;26.75;;
25023;SDS011;13033;50.936;5.334;2022-12-08T04:50:41;50.78;;;26.17;;
25023;SDS011;13033;50.936;5.334;2022-12-08T04:53:08;60.30;;;28.67;;
25023;SDS011;13033;50.936;5.334;2022-12-08T04:55:37;58.30;;;26.75;;
25023;SDS011;13033;50.936;5.334;2022-12-08T04:58:10;54.75;;;27.42;;
25023;SDS011;13033;50.936;5.334;2022-12-08T05:00:38;56.20;;;28.55;;
25023;SDS011;13033;50.936;5.334;2022-12-08T05:03:04;51.50;;;26.17;;
25023;SDS011;13033;50.936;5.334;2022-12-08T05:05:30;49.97;;;26.05;;
25023;SDS011;13033;50.936;5.334;2022-12-08T05:07:55;49.30;;;27.27;;
25023;SDS011;13033;50.936;5.334;2022-12-08T05:10:21;56.05;;;27.08;;
25023;SDS011;13033;50.936;5.334;2022-12-08T05:12:47;52.15;;;26.50;;
25023;SDS011;13033;50.936;5.334;2022-12-08T05:15:12;51.08;;;25.65;;
25023;SDS011;13033;50.936;5.334;2022-12-08T05:17:38;53.70;;;26.80;;
25023;SDS011;13033;50.936;5.334;2022-12-08T05:20:04;60.47;;;27.27;;
25023;SDS011;13033;50.936;5.334;2022-12-08T05:22:30;54.75;;;27.33;;
25023;SDS011;13033;50.936;5.334;2022-12-08T05:24:56;51.95;;;26.88;;
25023;SDS011;13033;50.936;5.334;2022-12-08T05:27:21;56.88;;;28.55;;
25023;SDS011;13033;50.936;5.334;2022-12-08T05:29:47;54.10;;;26.80;;
25023;SDS011;13033;50.936;5.334;2022-12-08T05:32:14;55.25;;;26.50;;
25023;SDS011;13033;50.936;5.334;2022-12-08T05:34:40;54.55;;;26.38;;
25023;SDS011;13033;50.936;5.334;2022-12-08T05:37:06;51.45;;;26.00;;
25023;SDS011;13033;50.936;5.334;2022-12-08T05:39:31;52.63;;;26.60;;
25023;SDS011;13033;50.936;5.334;2022-12-08T05:41:57;51.22;;;25.88;;
25023;SDS011;13033;50.936;5.334;2022-12-08T05:44:24;48.95;;;25.73;;
25023;SDS011;13033;50.936;5.334;2022-12-08T05:46:50;50.00;;;25.80;;
25023;SDS011;13033;50.936;5.334;2022-12-08T05:49:16;50.05;;;26.20;;
25023;SDS011;13033;50.936;5.334;2022-12-08T05:51:42;46.67;;;25.15;;
25023;SDS011;13033;50.936;5.334;2022-12-08T05:54:07;47.38;;;25.20;;
25023;SDS011;13033;50.936;5.334;2022-12-08T05:56:33;51.70;;;24.63;;
25023;SDS011;13033;50.936;5.334;2022-12-08T05:58:59;50.25;;;24.42;;
25023;SDS011;13033;50.936;5.334;2022-12-08T06:01:26;46.15;;;23.77;;
25023;SDS011;13033;50.936;5.334;2022-12-08T06:03:54;44.92;;;23.67;;
25023;SDS011;13033;50.936;5.334;2022-12-08T06:06:20;49.42;;;24.20;;
25023;SDS011;13033;50.936;5.334;2022-12-08T06:08:46;43.70;;;23.58;;
25023;SDS011;13033;50.936;5.334;2022-12-08T06:11:16;49.70;;;24.52;;
25023;SDS011;13033;50.936;5.334;2022-12-08T06:13:52;47.60;;;24.35;;
25023;SDS011;13033;50.936;5.334;2022-12-08T06:16:20;46.95;;;24.27;;
25023;SDS011;13033;50.936;5.334;2022-12-08T06:18:45;45.45;;;24.35;;
25023;SDS011;13033;50.936;5.334;2022-12-08T06:21:12;48.35;;;23.42;;
25023;SDS011;13033;50.936;5.334;2022-12-08T06:23:38;43.85;;;21.15;;
25023;SDS011;13033;50.936;5.334;2022-12-08T06:26:08;41.42;;;22.20;;
25023;SDS011;13033;50.936;5.334;2022-12-08T06:31:06;33.58;;;20.80;;
25023;SDS011;13033;50.936;5.334;2022-12-08T06:33:33;38.08;;;20.48;;
25023;SDS011;13033;50.936;5.334;2022-12-08T06:35:59;37.15;;;20.25;;
25023;SDS011;13033;50.936;5.334;2022-12-08T06:38:25;38.30;;;19.50;;
25023;SDS011;13033;50.936;5.334;2022-12-08T06:40:52;35.75;;;19.35;;
25023;SDS011;13033;50.936;5.334;2022-12-08T06:43:19;36.40;;;19.35;;
25023;SDS011;13033;50.936;5.334;2022-12-08T06:45:44;37.83;;;19.08;;
25023;SDS011;13033;50.936;5.334;2022-12-08T06:48:10;38.55;;;20.45;;
25023;SDS011;13033;50.936;5.334;2022-12-08T06:50:35;35.38;;;19.90;;
25023;SDS011;13033;50.936;5.334;2022-12-08T06:53:01;36.58;;;20.75;;
25023;SDS011;13033;50.936;5.334;2022-12-08T06:55:27;36.08;;;20.30;;
25023;SDS011;13033;50.936;5.334;2022-12-08T06:57:53;38.60;;;20.42;;
25023;SDS011;13033;50.936;5.334;2022-12-08T07:00:18;39.35;;;20.58;;
25023;SDS011;13033;50.936;5.334;2022-12-08T07:02:44;46.97;;;20.95;;
25023;SDS011;13033;50.936;5.334;2022-12-08T07:05:10;35.55;;;19.33;;
25023;SDS011;13033;50.936;5.334;2022-12-08T07:07:36;40.92;;;22.33;;
25023;SDS011;13033;50.936;5.334;2022-12-08T07:10:01;42.33;;;21.35;;
25023;SDS011;13033;50.936;5.334;2022-12-08T07:12:27;47.80;;;24.02;;
25023;SDS011;13033;50.936;5.334;2022-12-08T07:14:53;44.22;;;23.75;;
25023;SDS011;13033;50.936;5.334;2022-12-08T07:17:18;45.40;;;23.98;;
25023;SDS011;13033;50.936;5.334;2022-12-08T07:19:44;45.80;;;23.88;;
25023;SDS011;13033;50.936;5.334;2022-12-08T07:22:10;51.22;;;24.88;;
25023;SDS011;13033;50.936;5.334;2022-12-08T07:24:35;45.70;;;22.65;;
25023;SDS011;13033;50.936;5.334;2022-12-08T07:27:01;44.85;;;22.15;;
25023;SDS011;13033;50.936;5.334;2022-12-08T07:29:27;44.05;;;22.80;;
25023;SDS011;13033;50.936;5.334;2022-12-08T07:31:52;39.95;;;21.70;;
25023;SDS011;13033;50.936;5.334;2022-12-08T07:34:18;40.45;;;22.55;;
25023;SDS011;13033;50.936;5.334;2022-12-08T07:36:44;44.95;;;22.00;;
25023;SDS011;13033;50.936;5.334;2022-12-08T07:39:09;42.45;;;20.98;;
25023;SDS011;13033;50.936;5.334;2022-12-08T07:41:35;39.38;;;20.73;;
25023;SDS011;13033;50.936;5.334;2022-12-08T07:44:00;40.60;;;20.67;;
25023;SDS011;13033;50.936;5.334;2022-12-08T07:46:26;43.35;;;21.48;;
25023;SDS011;13033;50.936;5.334;2022-12-08T07:48:52;38.15;;;20.00;;
25023;SDS011;13033;50.936;5.334;2022-12-08T07:51:19;43.13;;;20.38;;
25023;SDS011;13033;50.936;5.334;2022-12-08T07:53:45;37.65;;;19.30;;
25023;SDS011;13033;50.936;5.334;2022-12-08T07:56:12;41.38;;;20.08;;
25023;SDS011;13033;50.936;5.334;2022-12-08T07:58:38;35.40;;;18.88;;
25023;SDS011;13033;50.936;5.334;2022-12-08T08:01:05;36.70;;;19.40;;
25023;SDS011;13033;50.936;5.334;2022-12-08T08:03:41;33.17;;;18.60;;
25023;SDS011;13033;50.936;5.334;2022-12-08T08:06:07;32.53;;;17.88;;
25023;SDS011;13033;50.936;5.334;2022-12-08T08:08:33;40.00;;;19.55;;
25023;SDS011;13033;50.936;5.334;2022-12-08T08:10:58;36.17;;;18.95;;
25023;SDS011;13033;50.936;5.334;2022-12-08T08:13:24;36.65;;;17.58;;
25023;SDS011;13033;50.936;5.334;2022-12-08T08:15:49;41.40;;;19.77;;
25023;SDS011;13033;50.936;5.334;2022-12-08T08:18:15;37.28;;;17.60;;
25023;SDS011;13033;50.936;5.334;2022-12-08T08:20:41;34.00;;;19.13;;
25023;SDS011;13033;50.936;5.334;2022-12-08T08:23:06;35.72;;;18.70;;
25023;SDS011;13033;50.936;5.334;2022-12-08T08:25:32;37.35;;;18.15;;
25023;SDS011;13033;50.936;5.334;2022-12-08T08:27:58;33.03;;;18.52;;
25023;SDS011;13033;50.936;5.334;2022-12-08T08:30:23;35.70;;;17.90;;
25023;SDS011;13033;50.936;5.334;2022-12-08T08:32:49;34.58;;;17.40;;
25023;SDS011;13033;50.936;5.334;2022-12-08T08:35:15;32.90;;;16.60;;
25023;SDS011;13033;50.936;5.334;2022-12-08T08:37:40;35.95;;;16.17;;
25023;SDS011;13033;50.936;5.334;2022-12-08T08:40:06;36.30;;;17.80;;
25023;SDS011;13033;50.936;5.334;2022-12-08T08:42:33;31.08;;;15.98;;
25023;SDS011;13033;50.936;5.334;2022-12-08T08:44:58;35.45;;;15.98;;
25023;SDS011;13033;50.936;5.334;2022-12-08T08:47:24;33.10;;;17.83;;
25023;SDS011;13033;50.936;5.334;2022-12-08T08:49:50;30.50;;;15.88;;
25023;SDS011;13033;50.936;5.334;2022-12-08T08:52:16;32.55;;;15.30;;
25023;SDS011;13033;50.936;5.334;2022-12-08T08:54:41;29.58;;;15.20;;
25023;SDS011;13033;50.936;5.334;2022-12-08T08:57:07;30.02;;;14.77;;
25023;SDS011;13033;50.936;5.334;2022-12-08T08:59:33;26.92;;;13.27;;
25023;SDS011;13033;50.936;5.334;2022-12-08T09:01:58;29.20;;;15.23;;
25023;SDS011;13033;50.936;5.334;2022-12-08T09:04:24;26.58;;;14.45;;
25023;SDS011;13033;50.936;5.334;2022-12-08T09:06:50;30.85;;;14.25;;
25023;SDS011;13033;50.936;5.334;2022-12-08T09:09:16;29.80;;;14.20;;
25023;SDS011;13033;50.936;5.334;2022-12-08T09:11:42;28.45;;;14.65;;
25023;SDS011;13033;50.936;5.334;2022-12-08T09:14:09;23.98;;;13.85;;
25023;SDS011;13033;50.936;5.334;2022-12-08T09:16:36;25.33;;;13.55;;
25023;SDS011;13033;50.936;5.334;2022-12-08T09:19:02;27.38;;;13.30;;
25023;SDS011;13033;50.936;5.334;2022-12-08T09:21:27;26.48;;;14.60;;
25023;SDS011;13033;50.936;5.334;2022-12-08T09:23:54;27.98;;;14.63;;
25023;SDS011;13033;50.936;5.334;2022-12-08T09:26:21;23.45;;;13.75;;
25023;SDS011;13033;50.936;5.334;2022-12-08T09:28:48;27.38;;;13.65;;
25023;SDS011;13033;50.936;5.334;2022-12-08T09:31:15;25.65;;;14.07;;
25023;SDS011;13033;50.936;5.334;2022-12-08T09:33:42;25.60;;;12.77;;
25023;SDS011;13033;50.936;5.334;2022-12-08T09:36:08;27.67;;;14.32;;
25023;SDS011;13033;50.936;5.334;2022-12-08T09:38:34;28.70;;;13.57;;
25023;SDS011;13033;50.936;5.334;2022-12-08T09:41:01;27.95;;;13.88;;
25023;SDS011;13033;50.936;5.334;2022-12-08T09:46:24;26.05;;;13.68;;
25023;SDS011;13033;50.936;5.334;2022-12-08T09:48:53;26.80;;;14.23;;
25023;SDS011;13033;50.936;5.334;2022-12-08T09:51:22;21.73;;;13.63;;
25023;SDS011;13033;50.936;5.334;2022-12-08T09:53:51;24.65;;;14.20;;
25023;SDS011;13033;50.936;5.334;2022-12-08T09:56:21;27.23;;;13.90;;
25023;SDS011;13033;50.936;5.334;2022-12-08T10:01:20;25.88;;;14.40;;
25023;SDS011;13033;50.936;5.334;2022-12-08T10:03:50;24.38;;;14.43;;
25023;SDS011;13033;50.936;5.334;2022-12-08T10:22:50;34.50;;;16.17;;
25023;SDS011;13033;50.936;5.334;2022-12-08T10:25:28;30.77;;;15.63;;
25023;SDS011;13033;50.936;5.334;2022-12-08T10:27:59;32.80;;;15.90;;
25023;SDS011;13033;50.936;5.334;2022-12-08T10:30:25;32.35;;;16.17;;
25023;SDS011;13033;50.936;5.334;2022-12-08T10:32:52;32.35;;;16.33;;
25023;SDS011;13033;50.936;5.334;2022-12-08T10:35:19;29.67;;;15.63;;
25023;SDS011;13033;50.936;5.334;2022-12-08T10:37:53;29.75;;;15.48;;
25023;SDS011;13033;50.936;5.334;2022-12-08T10:40:28;26.10;;;14.77;;
25023;SDS011;13033;50.936;5.334;2022-12-08T10:42:59;32.13;;;16.15;;
25023;SDS011;13033;50.936;5.334;2022-12-08T10:45:29;30.15;;;16.25;;
25023;SDS011;13033;50.936;5.334;2022-12-08T10:48:03;28.63;;;15.65;;
25023;SDS011;13033;50.936;5.334;2022-12-08T10:53:18;38.58;;;17.42;;
25023;SDS011;13033;50.936;5.334;2022-12-08T10:58:31;32.10;;;17.38;;
25023;SDS011;13033;50.936;5.334;2022-12-08T11:01:05;40.95;;;20.98;;
25023;SDS011;13033;50.936;5.334;2022-12-08T11:03:34;29.80;;;16.83;;
25023;SDS011;13033;50.936;5.334;2022-12-08T11:06:21;34.50;;;16.27;;
25023;SDS011;13033;50.936;5.334;2022-12-08T11:08:59;32.47;;;16.27;;
25023;SDS011;13033;50.936;5.334;2022-12-08T11:11:46;28.13;;;16.27;;
25023;SDS011;13033;50.936;5.334;2022-12-08T11:14:26;27.48;;;14.65;;
25023;SDS011;13033;50.936;5.334;2022-12-08T11:17:06;27.88;;;14.88;;
25023;SDS011;13033;50.936;5.334;2022-12-08T11:19:40;27.00;;;16.05;;
25023;SDS011;13033;50.936;5.334;2022-12-08T11:25:24;25.52;;;15.05;;
25023;SDS011;13033;50.936;5.334;2022-12-08T11:27:52;30.00;;;14.75;;
25023;SDS011;13033;50.936;5.334;2022-12-08T11:30:30;27.70;;;14.82;;
25023;SDS011;13033;50.936;5.334;2022-12-08T11:33:13;30.60;;;14.55;;
25023;SDS011;13033;50.936;5.334;2022-12-08T11:35:44;26.77;;;13.52;;
25023;SDS011;13033;50.936;5.334;2022-12-08T11:38:16;29.38;;;14.82;;
25023;SDS011;13033;50.936;5.334;2022-12-08T11:47:05;26.70;;;14.13;;
25023;SDS011;13033;50.936;5.334;2022-12-08T11:49:14;36.60;;;14.80;;
25023;SDS011;13033;50.936;5.334;2022-12-08T11:51:46;29.20;;;14.95;;
25023;SDS011;13033;50.936;5.334;2022-12-08T12:01:52;26.17;;;14.90;;
25023;SDS011;13033;50.936;5.334;2022-12-08T12:09:47;28.80;;;13.52;;
25023;SDS011;13033;50.936;5.334;2022-12-08T12:12:44;25.40;;;13.05;;
25023;SDS011;13033;50.936;5.334;2022-12-08T12:20:58;20.73;;;10.55;;
25023;SDS011;13033;50.936;5.334;2022-12-08T12:23:35;20.05;;;11.18;;
25023;SDS011;13033;50.936;5.334;2022-12-08T12:26:03;25.15;;;11.75;;
25023;SDS011;13033;50.936;5.334;2022-12-08T12:28:39;29.77;;;11.85;;
25023;SDS011;13033;50.936;5.334;2022-12-08T12:31:14;21.83;;;10.73;;
25023;SDS011;13033;50.936;5.334;2022-12-08T12:33:42;24.30;;;11.98;;
25023;SDS011;13033;50.936;5.334;2022-12-08T12:36:10;25.92;;;11.38;;
25023;SDS011;13033;50.936;5.334;2022-12-08T12:38:41;20.67;;;10.27;;
25023;SDS011;13033;50.936;5.334;2022-12-08T12:41:27;25.73;;;11.68;;
25023;SDS011;13033;50.936;5.334;2022-12-08T12:57:14;22.63;;;10.98;;
25023;SDS011;13033;50.936;5.334;2022-12-08T12:59:47;25.95;;;10.88;;
25023;SDS011;13033;50.936;5.334;2022-12-08T13:05:20;27.85;;;10.32;;
25023;SDS011;13033;50.936;5.334;2022-12-08T13:08:02;22.02;;;9.75;;
25023;SDS011;13033;50.936;5.334;2022-12-08T13:13:04;20.02;;;9.98;;
25023;SDS011;13033;50.936;5.334;2022-12-08T13:15:40;18.33;;;10.13;;
25023;SDS011;13033;50.936;5.334;2022-12-08T13:18:24;18.45;;;10.57;;
25023;SDS011;13033;50.936;5.334;2022-12-08T13:21:19;22.92;;;10.90;;
25023;SDS011;13033;50.936;5.334;2022-12-08T13:26:31;21.90;;;10.23;;
25023;SDS011;13033;50.936;5.334;2022-12-08T13:29:13;18.90;;;9.50;;
25023;SDS011;13033;50.936;5.334;2022-12-08T13:31:42;19.02;;;9.48;;
25023;SDS011;13033;50.936;5.334;2022-12-08T13:40:00;20.20;;;8.88;;
25023;SDS011;13033;50.936;5.334;2022-12-08T13:43:13;16.52;;;8.55;;
25023;SDS011;13033;50.936;5.334;2022-12-08T13:45:44;14.43;;;8.02;;
25023;SDS011;13033;50.936;5.334;2022-12-08T13:48:19;17.67;;;9.38;;
25023;SDS011;13033;50.936;5.334;2022-12-08T13:54:19;17.08;;;9.10;;
25023;SDS011;13033;50.936;5.334;2022-12-08T13:56:49;14.82;;;8.52;;
25023;SDS011;13033;50.936;5.334;2022-12-08T14:01:45;17.40;;;9.02;;
25023;SDS011;13033;50.936;5.334;2022-12-08T14:04:15;17.55;;;9.57;;
25023;SDS011;13033;50.936;5.334;2022-12-08T14:06:44;17.25;;;9.15;;
25023;SDS011;13033;50.936;5.334;2022-12-08T14:09:22;17.77;;;9.38;;
25023;SDS011;13033;50.936;5.334;2022-12-08T14:14:30;16.58;;;9.25;;
25023;SDS011;13033;50.936;5.334;2022-12-08T14:17:12;18.98;;;9.02;;
25023;SDS011;13033;50.936;5.334;2022-12-08T14:19:41;19.25;;;9.75;;
25023;SDS011;13033;50.936;5.334;2022-12-08T14:22:09;15.70;;;9.05;;
25023;SDS011;13033;50.936;5.334;2022-12-08T14:24:59;17.02;;;8.48;;
25023;SDS011;13033;50.936;5.334;2022-12-08T14:27:26;16.98;;;9.45;;
25023;SDS011;13033;50.936;5.334;2022-12-08T14:29:56;14.95;;;9.20;;
25023;SDS011;13033;50.936;5.334;2022-12-08T14:34:54;16.75;;;8.45;;
25023;SDS011;13033;50.936;5.334;2022-12-08T14:37:42;19.75;;;9.07;;
25023;SDS011;13033;50.936;5.334;2022-12-08T14:42:44;16.15;;;8.85;;
25023;SDS011;13033;50.936;5.334;2022-12-08T14:45:13;18.15;;;8.48;;
25023;SDS011;13033;50.936;5.334;2022-12-08T14:47:40;19.73;;;9.55;;
25023;SDS011;13033;50.936;5.334;2022-12-08T14:53:01;17.80;;;9.48;;
25023;SDS011;13033;50.936;5.334;2022-12-08T14:55:33;18.48;;;9.77;;
25023;SDS011;13033;50.936;5.334;2022-12-08T14:58:01;18.92;;;9.02;;
25023;SDS011;13033;50.936;5.334;2022-12-08T15:00:27;19.00;;;8.70;;
25023;SDS011;13033;50.936;5.334;2022-12-08T15:02:53;20.40;;;9.43;;
25023;SDS011;13033;50.936;5.334;2022-12-08T15:05:31;22.05;;;9.60;;
25023;SDS011;13033;50.936;5.334;2022-12-08T15:08:00;17.10;;;9.10;;
25023;SDS011;13033;50.936;5.334;2022-12-08T15:10:28;17.55;;;8.95;;
25023;SDS011;13033;50.936;5.334;2022-12-08T15:13:06;19.45;;;8.88;;
25023;SDS011;13033;50.936;5.334;2022-12-08T15:18:15;15.75;;;7.70;;
25023;SDS011;13033;50.936;5.334;2022-12-08T15:20:44;17.35;;;8.18;;
25023;SDS011;13033;50.936;5.334;2022-12-08T15:23:18;17.48;;;8.65;;
25023;SDS011;13033;50.936;5.334;2022-12-08T15:25:49;17.88;;;8.88;;
25023;SDS011;13033;50.936;5.334;2022-12-08T15:28:20;17.75;;;8.52;;
25023;SDS011;13033;50.936;5.334;2022-12-08T15:33:13;19.17;;;8.82;;
25023;SDS011;13033;50.936;5.334;2022-12-08T15:35:39;15.75;;;8.32;;
25023;SDS011;13033;50.936;5.334;2022-12-08T15:38:05;18.90;;;8.38;;
25023;SDS011;13033;50.936;5.334;2022-12-08T15:40:31;14.52;;;7.72;;
25023;SDS011;13033;50.936;5.334;2022-12-08T15:42:57;16.35;;;7.32;;
25023;SDS011;13033;50.936;5.334;2022-12-08T15:45:25;15.55;;;7.35;;
25023;SDS011;13033;50.936;5.334;2022-12-08T15:47:54;13.50;;;8.55;;
25023;SDS011;13033;50.936;5.334;2022-12-08T15:50:21;18.33;;;8.65;;
25023;SDS011;13033;50.936;5.334;2022-12-08T15:52:47;16.67;;;8.68;;
25023;SDS011;13033;50.936;5.334;2022-12-08T15:55:18;16.98;;;9.02;;
25023;SDS011;13033;50.936;5.334;2022-12-08T15:57:48;18.55;;;9.57;;
25023;SDS011;13033;50.936;5.334;2022-12-08T16:02:53;15.52;;;9.05;;
25023;SDS011;13033;50.936;5.334;2022-12-08T16:05:20;16.48;;;9.30;;
25023;SDS011;13033;50.936;5.334;2022-12-08T16:07:49;18.70;;;9.75;;
25023;SDS011;13033;50.936;5.334;2022-12-08T16:10:16;17.17;;;9.90;;
25023;SDS011;13033;50.936;5.334;2022-12-08T16:12:44;17.77;;;10.02;;
25023;SDS011;13033;50.936;5.334;2022-12-08T16:15:29;17.70;;;9.02;;
25023;SDS011;13033;50.936;5.334;2022-12-08T16:17:56;16.77;;;9.00;;
25023;SDS011;13033;50.936;5.334;2022-12-08T16:20:22;20.17;;;9.05;;
25023;SDS011;13033;50.936;5.334;2022-12-08T16:22:48;19.50;;;8.18;;
25023;SDS011;13033;50.936;5.334;2022-12-08T16:25:14;11.50;;;6.40;;
25023;SDS011;13033;50.936;5.334;2022-12-08T16:27:40;12.48;;;7.07;;
25023;SDS011;13033;50.936;5.334;2022-12-08T16:30:07;13.25;;;6.63;;
25023;SDS011;13033;50.936;5.334;2022-12-08T16:35:04;13.98;;;6.57;;
25023;SDS011;13033;50.936;5.334;2022-12-08T16:37:30;13.40;;;6.30;;
25023;SDS011;13033;50.936;5.334;2022-12-08T16:39:56;10.50;;;6.05;;
25023;SDS011;13033;50.936;5.334;2022-12-08T16:42:23;12.30;;;6.80;;
25023;SDS011;13033;50.936;5.334;2022-12-08T16:45:04;17.38;;;9.88;;
25023;SDS011;13033;50.936;5.334;2022-12-08T16:47:32;11.73;;;6.25;;
25023;SDS011;13033;50.936;5.334;2022-12-08T16:49:58;7.60;;;4.85;;
25023;SDS011;13033;50.936;5.334;2022-12-08T16:52:24;7.95;;;5.20;;
25023;SDS011;13033;50.936;5.334;2022-12-08T16:54:50;11.20;;;5.57;;
25023;SDS011;13033;50.936;5.334;2022-12-08T16:57:15;13.23;;;5.63;;